Airfield :







YOU CAN JOIN US ON...

 
LOGIN :

Register | Disclaimer

   EN    FR    IT 

 









Legend :    VFR   Marginal VFR   IFR   Intensive IFR   Very Intensive IFR
Visi :
Ceiling :
>= 8 km
>= 3000ft
5 to 8 km
1000 to 3000 ft
1500m to 5 km
500 to 1000 ft
800 to 1500m
200 to 500 ft
< 800m
< 200 ft
Symbols :   Thunderstorms  Fog  Heavy snow  Heavy precipitations  Wind > 20 kt







- Airport Elevation : 285 ft
- IATA code : ALB


KALB - Albany International

CURRENT METAR :
  • 190551Z 00000KT 10SM SCT260 08/06 A3036 RMK AO2 SLP283 T00830056 10144 20072 51014

EXPIRED METARs :
  • 190451Z 00000KT 10SM FEW260 09/07 A3036 RMK AO2 SLP281 T00890067 402060089
  • 190351Z 00000KT 10SM FEW260 10/07 A3035 RMK AO2 SLP276 T01000067

TAF KALB
Valid from the 19 at 06:00 until the 20 at 06:00 UTC


190521Z 1906/2006 00000KT P6SM SCT250
FM191100 VRB03KT 1 1/2SM BR BKN002
FM191300 16004KT P6SM SKC
No reported NOTAMs for that airfield.



MET'MAP, your aeronautical weather chart ! - Copyright ORBIFLY December 2007 - Disclaimer

ORBIFLY MET'MAP TEAM :

Programming & Development : Alexandra Zaïnal
Concept & Development : Baudouin d'Aumeries
Co-Development & Prog : Marc-Olivier Méhu
Technical & hardware support : Manuel Goepfert

Contact : metmap@orbifly.com




SOURCES & CREDITS :

   NOAA